createdAt,value
2017-01-22T00:00:48.744Z,0
2017-01-22T00:01:57.843Z,0
2017-01-22T00:03:06.999Z,0
2017-01-22T00:04:16.099Z,0
2017-01-22T00:05:25.510Z,0
2017-01-22T00:06:34.622Z,0
2017-01-22T00:07:43.731Z,0
2017-01-22T00:08:52.882Z,0
2017-01-22T00:10:01.992Z,0
2017-01-22T00:11:11.093Z,0
2017-01-22T00:12:20.194Z,0
2017-01-22T00:13:29.301Z,0
2017-01-22T00:14:38.451Z,0
2017-01-22T00:15:47.559Z,0
2017-01-22T00:16:56.658Z,0
2017-01-22T00:18:05.756Z,0
2017-01-22T00:19:14.862Z,0
2017-01-22T00:20:24.013Z,0
2017-01-22T00:21:33.126Z,0
2017-01-22T00:22:42.231Z,0
2017-01-22T00:23:51.343Z,0
2017-01-22T00:25:00.444Z,0
2017-01-22T00:26:09.597Z,0
2017-01-22T00:27:18.698Z,0
2017-01-22T00:28:27.807Z,0
2017-01-22T00:29:36.918Z,0
2017-01-22T00:30:46.018Z,0
2017-01-22T00:31:55.171Z,0
2017-01-22T00:33:04.302Z,0
2017-01-22T00:34:13.399Z,0
2017-01-22T00:35:22.511Z,0
2017-01-22T00:36:31.611Z,0
2017-01-22T00:37:40.780Z,0
2017-01-22T00:38:49.890Z,0
2017-01-22T00:39:58.996Z,0
2017-01-22T00:41:08.103Z,0
2017-01-22T00:42:17.213Z,0
2017-01-22T00:43:26.362Z,0
2017-01-22T00:44:35.470Z,0
2017-01-22T00:45:44.580Z,0
2017-01-22T00:46:53.681Z,0
2017-01-22T00:48:02.818Z,0
2017-01-22T00:49:11.974Z,0
2017-01-22T00:50:21.074Z,0
2017-01-22T00:51:30.173Z,0
2017-01-22T00:52:39.273Z,0
2017-01-22T00:53:48.380Z,0
2017-01-22T00:54:57.531Z,0
2017-01-22T00:56:06.640Z,0
2017-01-22T00:57:15.740Z,0
2017-01-22T00:58:24.838Z,0
2017-01-22T00:59:33.949Z,0
2017-01-22T01:00:43.110Z,0
2017-01-22T01:01:52.231Z,0
2017-01-22T01:03:01.349Z,0
2017-01-22T01:04:10.600Z,0
2017-01-22T01:05:19.719Z,0
2017-01-22T01:06:28.872Z,0
2017-01-22T01:07:37.979Z,0
2017-01-22T01:08:47.082Z,0
2017-01-22T01:09:56.189Z,0
2017-01-22T01:11:05.294Z,0
2017-01-22T01:12:14.454Z,0
2017-01-22T01:13:23.562Z,0
2017-01-22T01:14:32.686Z,0
2017-01-22T01:15:41.789Z,0
2017-01-22T01:16:50.886Z,0
2017-01-22T01:18:00.043Z,8
2017-01-22T01:19:09.605Z,0
2017-01-22T01:20:18.725Z,0
2017-01-22T01:21:27.838Z,0
2017-01-22T01:22:36.963Z,0
2017-01-22T01:23:46.124Z,0
2017-01-22T01:24:55.228Z,0
2017-01-22T01:26:04.339Z,0
2017-01-22T01:27:13.448Z,0
2017-01-22T01:28:22.561Z,0
2017-01-22T01:29:31.719Z,0
2017-01-22T01:30:40.847Z,0
2017-01-22T01:31:49.958Z,0
2017-01-22T01:32:59.067Z,0
2017-01-22T01:34:08.182Z,0
2017-01-22T01:35:17.346Z,0
2017-01-22T01:36:26.467Z,0
2017-01-22T01:37:35.583Z,0
2017-01-22T01:38:44.708Z,0
2017-01-22T01:39:53.821Z,0
2017-01-22T01:41:02.974Z,0
2017-01-22T01:42:12.094Z,0
2017-01-22T01:43:21.204Z,0
2017-01-22T01:44:30.315Z,0
2017-01-22T01:45:39.433Z,0
2017-01-22T01:46:48.598Z,0
2017-01-22T01:47:57.718Z,0
2017-01-22T01:49:06.853Z,0
2017-01-22T01:50:15.951Z,0
2017-01-22T01:51:25.061Z,0
2017-01-22T01:52:34.221Z,0
2017-01-22T01:53:43.331Z,0
2017-01-22T01:54:52.439Z,0
2017-01-22T01:56:01.571Z,0
2017-01-22T01:57:10.681Z,0
2017-01-22T01:58:19.841Z,0
2017-01-22T01:59:28.961Z,0
2017-01-22T02:00:38.069Z,0
2017-01-22T02:01:47.189Z,0
2017-01-22T02:02:56.299Z,0
2017-01-22T02:04:05.465Z,0
2017-01-22T02:05:14.577Z,0
2017-01-22T02:06:23.701Z,0
2017-01-22T02:07:32.811Z,0
2017-01-22T02:08:41.938Z,0
2017-01-22T02:09:51.097Z,0
2017-01-22T02:11:00.216Z,0
2017-01-22T02:12:09.331Z,0
2017-01-22T02:13:18.440Z,0
2017-01-22T02:14:27.555Z,0
2017-01-22T02:15:36.722Z,0
2017-01-22T02:16:45.833Z,0
2017-01-22T02:17:54.964Z,0
2017-01-22T02:19:04.078Z,0
2017-01-22T02:20:13.189Z,0
2017-01-22T02:21:22.352Z,0
2017-01-22T02:22:31.465Z,0
2017-01-22T02:23:40.578Z,0
2017-01-22T02:24:49.693Z,0
2017-01-22T02:25:58.802Z,0
2017-01-22T02:27:07.960Z,0
2017-01-22T02:28:17.069Z,0
2017-01-22T02:29:26.180Z,0
2017-01-22T02:30:35.291Z,0
2017-01-22T02:31:44.415Z,0
2017-01-22T02:32:53.575Z,0
2017-01-22T02:34:02.720Z,0
2017-01-22T02:35:11.830Z,0
2017-01-22T02:36:20.943Z,0
2017-01-22T02:37:30.056Z,0
2017-01-22T02:38:39.235Z,0
2017-01-22T02:39:48.349Z,0
2017-01-22T02:40:57.459Z,0
2017-01-22T02:42:06.563Z,0
2017-01-22T02:43:15.676Z,0
2017-01-22T02:44:24.836Z,0
2017-01-22T02:45:33.943Z,0
2017-01-22T02:46:43.053Z,0
2017-01-22T02:47:52.166Z,0
2017-01-22T02:49:01.289Z,0
2017-01-22T02:50:10.464Z,0
2017-01-22T02:51:19.577Z,0
2017-01-22T02:52:28.682Z,0
2017-01-22T02:53:37.789Z,0
2017-01-22T02:54:46.899Z,0
2017-01-22T02:55:56.065Z,0
2017-01-22T02:57:05.180Z,0
2017-01-22T02:58:14.292Z,0
2017-01-22T02:59:23.403Z,0
2017-01-22T03:00:32.505Z,0
2017-01-22T03:01:41.663Z,0
2017-01-22T03:02:50.770Z,0
2017-01-22T03:03:59.882Z,0
2017-01-22T03:05:08.992Z,0
2017-01-22T03:06:18.109Z,0
2017-01-22T03:07:27.269Z,0
2017-01-22T03:08:36.381Z,0
2017-01-22T03:09:45.492Z,0
2017-01-22T03:10:54.610Z,0
2017-01-22T03:12:03.721Z,0
2017-01-22T03:13:12.887Z,0
2017-01-22T03:14:22.001Z,0
2017-01-22T03:15:31.116Z,0
2017-01-22T03:16:40.228Z,0
2017-01-22T03:17:49.345Z,0
2017-01-22T03:18:58.508Z,0
2017-01-22T03:20:07.616Z,0
2017-01-22T03:21:16.754Z,0
2017-01-22T03:22:25.872Z,0
2017-01-22T03:23:34.979Z,0
2017-01-22T03:24:44.133Z,0
2017-01-22T03:25:53.248Z,0
2017-01-22T03:27:02.362Z,0
2017-01-22T03:28:11.482Z,0
2017-01-22T03:29:20.598Z,0
2017-01-22T03:30:29.761Z,0
2017-01-22T03:31:38.879Z,0
2017-01-22T03:32:48.026Z,0
2017-01-22T03:33:57.149Z,0
2017-01-22T03:35:06.253Z,0
2017-01-22T03:36:15.416Z,0
2017-01-22T03:37:24.521Z,0
2017-01-22T03:38:33.618Z,0
2017-01-22T03:39:42.721Z,0
2017-01-22T03:40:51.818Z,0
2017-01-22T03:42:00.965Z,0
2017-01-22T03:43:10.063Z,0
2017-01-22T03:44:19.159Z,0
2017-01-22T03:45:28.259Z,0
2017-01-22T03:46:37.390Z,0
2017-01-22T03:47:46.571Z,0
2017-01-22T03:48:55.666Z,0
2017-01-22T03:50:04.766Z,0
2017-01-22T03:51:13.865Z,0
2017-01-22T03:52:22.971Z,0
2017-01-22T03:53:32.115Z,0
2017-01-22T03:54:41.217Z,0
2017-01-22T03:55:50.320Z,0
2017-01-22T03:56:59.435Z,0
2017-01-22T03:58:08.550Z,0
2017-01-22T03:59:17.727Z,0
2017-01-22T04:00:26.830Z,0
2017-01-22T04:01:35.936Z,0
2017-01-22T04:02:45.032Z,0
2017-01-22T04:03:54.140Z,0
2017-01-22T04:05:03.288Z,0
2017-01-22T04:06:12.393Z,0
2017-01-22T04:07:21.496Z,0
2017-01-22T04:08:30.596Z,0
2017-01-22T04:09:39.693Z,0
2017-01-22T04:10:48.840Z,0
2017-01-22T04:11:57.938Z,0
2017-01-22T04:13:07.038Z,0
2017-01-22T04:14:16.137Z,0
2017-01-22T04:15:25.239Z,0
2017-01-22T04:16:34.387Z,0
2017-01-22T04:17:43.512Z,0
2017-01-22T04:18:52.615Z,0
2017-01-22T04:20:01.723Z,0
2017-01-22T04:21:10.830Z,0
2017-01-22T04:22:19.978Z,0
2017-01-22T04:23:29.079Z,0
2017-01-22T04:24:38.176Z,0
2017-01-22T04:25:47.279Z,0
2017-01-22T04:26:56.380Z,0
2017-01-22T04:28:05.525Z,0
2017-01-22T04:29:14.618Z,0
2017-01-22T04:30:23.720Z,0
2017-01-22T04:31:32.818Z,0
2017-01-22T04:32:41.910Z,0
2017-01-22T04:33:51.064Z,0
2017-01-22T04:35:00.169Z,0
2017-01-22T04:36:09.275Z,0
2017-01-22T04:37:18.375Z,0
2017-01-22T04:38:27.479Z,0
2017-01-22T04:39:36.626Z,0
2017-01-22T04:40:45.735Z,0
2017-01-22T04:41:54.835Z,0
2017-01-22T04:43:03.945Z,0
2017-01-22T04:44:13.049Z,0
2017-01-22T04:45:22.191Z,0
2017-01-22T04:46:31.295Z,0
2017-01-22T04:47:40.400Z,0
2017-01-22T04:48:49.500Z,0
2017-01-22T04:49:58.597Z,0
2017-01-22T04:51:07.739Z,0
2017-01-22T04:52:16.834Z,0
2017-01-22T04:53:25.937Z,0
2017-01-22T04:54:35.065Z,0
2017-01-22T04:55:44.172Z,0
2017-01-22T04:56:53.322Z,0
2017-01-22T04:58:02.457Z,0
2017-01-22T04:59:11.558Z,0
2017-01-22T05:00:20.655Z,0
2017-01-22T05:01:30.185Z,0
2017-01-22T05:02:39.333Z,0
2017-01-22T05:03:48.463Z,0
2017-01-22T05:04:57.568Z,0
2017-01-22T05:06:06.701Z,0
2017-01-22T05:07:15.812Z,0
2017-01-22T05:08:24.957Z,0
2017-01-22T05:09:34.052Z,0
2017-01-22T05:10:43.168Z,0
2017-01-22T05:11:52.274Z,0
2017-01-22T05:13:01.370Z,0
2017-01-22T05:14:10.520Z,0
2017-01-22T05:15:19.621Z,0
2017-01-22T05:16:28.733Z,0
2017-01-22T05:17:37.829Z,0
2017-01-22T05:18:46.922Z,0
2017-01-22T05:19:56.071Z,0
2017-01-22T05:21:05.170Z,0
2017-01-22T05:22:14.279Z,0
2017-01-22T05:23:23.379Z,0
2017-01-22T05:24:32.734Z,0
2017-01-22T05:25:42.303Z,0
2017-01-22T05:26:51.404Z,0
2017-01-22T05:28:00.512Z,0
2017-01-22T05:29:09.610Z,0
2017-01-22T05:30:18.711Z,0
2017-01-22T05:31:27.862Z,0
2017-01-22T05:32:36.969Z,0
2017-01-22T05:33:46.067Z,0
2017-01-22T05:34:55.166Z,0
2017-01-22T05:36:04.267Z,0
2017-01-22T05:37:13.410Z,0
2017-01-22T05:38:22.537Z,0
2017-01-22T05:39:31.632Z,0
2017-01-22T05:40:40.734Z,0
2017-01-22T05:41:49.826Z,0
2017-01-22T05:42:58.969Z,0
2017-01-22T05:44:08.065Z,0
2017-01-22T05:45:17.160Z,0
2017-01-22T05:46:26.268Z,0
2017-01-22T05:47:35.361Z,0
2017-01-22T05:48:44.515Z,0
2017-01-22T05:49:53.619Z,0
2017-01-22T05:51:02.721Z,0
2017-01-22T05:52:11.818Z,0
2017-01-22T05:53:20.918Z,0
2017-01-22T05:54:30.065Z,0
2017-01-22T05:55:39.168Z,0
2017-01-22T05:56:48.260Z,0
2017-01-22T05:57:57.361Z,0
2017-01-22T05:59:06.456Z,0
2017-01-22T06:00:15.602Z,0
2017-01-22T06:01:24.703Z,0
2017-01-22T06:02:33.801Z,0
2017-01-22T06:03:42.893Z,0
2017-01-22T06:04:51.990Z,0
2017-01-22T06:06:01.140Z,0
2017-01-22T06:07:10.249Z,0
2017-01-22T06:08:19.346Z,0
2017-01-22T06:09:28.452Z,0
2017-01-22T06:10:37.547Z,0
2017-01-22T06:11:46.726Z,0
2017-01-22T06:12:55.845Z,0
2017-01-22T06:14:04.941Z,0
2017-01-22T06:15:14.043Z,0
2017-01-22T06:16:23.139Z,0
2017-01-22T06:17:32.284Z,0
2017-01-22T06:18:41.385Z,0
2017-01-22T06:19:50.480Z,0
2017-01-22T06:20:59.579Z,0
2017-01-22T06:22:08.682Z,0
2017-01-22T06:23:17.845Z,0
2017-01-22T06:24:26.946Z,0
2017-01-22T06:25:36.047Z,0
2017-01-22T06:26:45.141Z,0
2017-01-22T06:27:54.243Z,0
2017-01-22T06:29:03.387Z,0
2017-01-22T06:30:12.491Z,0
2017-01-22T06:31:21.582Z,0
2017-01-22T06:32:30.677Z,0
2017-01-22T06:33:39.774Z,0
2017-01-22T06:34:48.920Z,0
2017-01-22T06:35:58.013Z,0
2017-01-22T06:37:07.104Z,0
2017-01-22T06:38:16.197Z,0
2017-01-22T06:39:25.300Z,0
2017-01-22T06:40:34.475Z,0
2017-01-22T06:41:43.565Z,0
2017-01-22T06:42:52.667Z,0
2017-01-22T06:44:01.763Z,0
2017-01-22T06:45:10.857Z,0
2017-01-22T06:46:20.004Z,0
2017-01-22T06:47:29.099Z,0
2017-01-22T06:48:38.200Z,0
2017-01-22T06:49:47.306Z,0
2017-01-22T06:50:56.398Z,0
2017-01-22T06:52:05.546Z,0
2017-01-22T06:53:14.643Z,0
2017-01-22T06:54:23.740Z,0
2017-01-22T06:55:32.830Z,0
2017-01-22T06:56:43.254Z,0
2017-01-22T06:57:52.455Z,0
2017-01-22T06:59:01.562Z,4
2017-01-22T07:00:10.671Z,4
2017-01-22T07:01:19.761Z,4
2017-01-22T07:02:28.860Z,0
2017-01-22T07:03:37.998Z,0
2017-01-22T07:04:47.894Z,0
2017-01-22T07:05:57.002Z,0
2017-01-22T07:07:06.102Z,4
2017-01-22T07:08:15.217Z,4
2017-01-22T07:09:24.375Z,0
2017-01-22T07:10:33.470Z,4
2017-01-22T07:11:42.574Z,4
2017-01-22T07:12:52.150Z,0
2017-01-22T07:14:04.969Z,0
2017-01-22T07:15:18.289Z,4
2017-01-22T07:16:29.541Z,4
2017-01-22T07:17:40.073Z,4
2017-01-22T07:18:49.750Z,4
2017-01-22T07:19:58.891Z,4
2017-01-22T07:21:08.636Z,4
2017-01-22T07:22:18.957Z,4
2017-01-22T07:23:28.048Z,8
2017-01-22T07:24:37.844Z,4
2017-01-22T07:25:46.937Z,4
2017-01-22T07:26:56.449Z,8
2017-01-22T07:28:06.834Z,8
2017-01-22T07:29:17.080Z,4
2017-01-22T07:30:27.588Z,8
2017-01-22T07:31:37.797Z,8
2017-01-22T07:32:48.805Z,8
2017-01-22T07:33:59.507Z,8
2017-01-22T07:35:08.604Z,8
2017-01-22T07:36:17.706Z,8
2017-01-22T07:37:26.807Z,8
2017-01-22T07:38:38.820Z,8
2017-01-22T07:39:49.380Z,8
2017-01-22T07:41:00.318Z,12
2017-01-22T07:42:11.450Z,12
2017-01-22T07:43:20.737Z,12
2017-01-22T07:44:29.882Z,8
2017-01-22T07:45:38.984Z,12
2017-01-22T07:46:48.077Z,12
2017-01-22T07:47:57.171Z,12
2017-01-22T07:49:06.270Z,12
2017-01-22T07:50:15.419Z,12
2017-01-22T07:51:24.518Z,12
2017-01-22T07:52:34.825Z,12
2017-01-22T07:53:44.073Z,16
2017-01-22T07:54:53.174Z,16
2017-01-22T07:56:02.317Z,16
2017-01-22T07:57:11.449Z,16
2017-01-22T07:58:20.544Z,16
2017-01-22T07:59:29.636Z,16
2017-01-22T08:00:38.743Z,12
2017-01-22T08:01:47.890Z,16
2017-01-22T08:02:56.994Z,16
2017-01-22T08:04:06.089Z,20
2017-01-22T08:05:15.192Z,20
2017-01-22T08:06:24.303Z,20
2017-01-22T08:07:33.869Z,20
2017-01-22T08:08:42.978Z,24
2017-01-22T08:09:52.085Z,20
2017-01-22T08:11:01.192Z,24
2017-01-22T08:12:10.292Z,24
2017-01-22T08:13:19.621Z,20
2017-01-22T08:14:28.720Z,24
2017-01-22T08:15:37.826Z,20
2017-01-22T08:16:46.936Z,24
2017-01-22T08:17:56.074Z,24
2017-01-22T08:19:05.224Z,24
2017-01-22T08:20:14.317Z,24
2017-01-22T08:21:23.413Z,28
2017-01-22T08:22:32.509Z,24
2017-01-22T08:23:41.952Z,24
2017-01-22T08:24:51.113Z,24
2017-01-22T08:26:00.211Z,24
2017-01-22T08:27:09.312Z,28
2017-01-22T08:28:18.416Z,28
2017-01-22T08:29:27.515Z,28
2017-01-22T08:30:36.664Z,28
2017-01-22T08:31:45.758Z,32
2017-01-22T08:32:54.860Z,32
2017-01-22T08:34:03.957Z,32
2017-01-22T08:35:13.065Z,32
2017-01-22T08:36:22.211Z,32
2017-01-22T08:37:31.308Z,32
2017-01-22T08:38:40.401Z,28
2017-01-22T08:39:49.504Z,28
2017-01-22T08:40:58.630Z,32
2017-01-22T08:42:07.779Z,36
2017-01-22T08:43:16.877Z,32
2017-01-22T08:44:25.976Z,32
2017-01-22T08:45:35.082Z,32
2017-01-22T08:46:44.195Z,36
2017-01-22T08:47:53.518Z,36
2017-01-22T08:49:02.617Z,36
2017-01-22T08:50:11.727Z,40
2017-01-22T08:51:20.829Z,36
2017-01-22T08:52:29.929Z,32
2017-01-22T08:53:39.081Z,36
2017-01-22T08:54:48.191Z,32
2017-01-22T08:55:57.310Z,32
2017-01-22T08:57:06.413Z,32
2017-01-22T08:58:15.513Z,36
2017-01-22T08:59:24.666Z,36
2017-01-22T09:00:33.767Z,40
2017-01-22T09:01:42.861Z,44
2017-01-22T09:02:51.962Z,44
2017-01-22T09:04:01.064Z,44
2017-01-22T09:05:10.241Z,48
2017-01-22T09:06:19.337Z,48
2017-01-22T09:07:28.438Z,48
2017-01-22T09:08:37.551Z,48
2017-01-22T09:09:46.654Z,48
2017-01-22T09:10:55.802Z,48
2017-01-22T09:12:04.902Z,48
2017-01-22T09:13:14.003Z,48
2017-01-22T09:14:23.103Z,48
2017-01-22T09:15:32.212Z,52
2017-01-22T09:16:41.357Z,52
2017-01-22T09:17:50.476Z,48
2017-01-22T09:18:59.575Z,52
2017-01-22T09:20:08.677Z,48
2017-01-22T09:21:17.790Z,52
2017-01-22T09:22:26.939Z,48
2017-01-22T09:23:36.043Z,52
2017-01-22T09:24:45.136Z,48
2017-01-22T09:25:54.232Z,52
2017-01-22T09:27:03.334Z,52
2017-01-22T09:28:12.485Z,56
2017-01-22T09:29:21.583Z,56
2017-01-22T09:30:30.680Z,60
2017-01-22T09:31:39.789Z,56
2017-01-22T09:32:48.889Z,56
2017-01-22T09:33:58.034Z,56
2017-01-22T09:35:07.157Z,60
2017-01-22T09:36:16.256Z,60
2017-01-22T09:37:25.371Z,64
2017-01-22T09:38:34.469Z,64
2017-01-22T09:39:43.618Z,68
2017-01-22T09:40:52.717Z,72
2017-01-22T09:42:33.817Z,68
2017-01-22T09:43:42.915Z,68
2017-01-22T09:44:52.068Z,68
2017-01-22T09:46:01.167Z,72
2017-01-22T09:47:10.284Z,72
2017-01-22T09:48:19.379Z,76
2017-01-22T09:49:28.495Z,72
2017-01-22T09:50:37.642Z,76
2017-01-22T09:51:46.747Z,80
2017-01-22T09:52:55.848Z,76
2017-01-22T09:54:04.950Z,76
2017-01-22T09:55:14.047Z,76
2017-01-22T09:56:23.197Z,76
2017-01-22T09:57:32.302Z,80
2017-01-22T09:58:41.401Z,80
2017-01-22T09:59:50.499Z,80
2017-01-22T10:00:59.593Z,84
2017-01-22T10:02:08.744Z,84
2017-01-22T10:03:17.857Z,84
2017-01-22T10:04:26.958Z,80
2017-01-22T10:05:36.059Z,84
2017-01-22T10:06:45.162Z,84
2017-01-22T10:07:54.311Z,88
2017-01-22T10:09:03.462Z,88
2017-01-22T10:10:12.562Z,84
2017-01-22T10:11:21.661Z,84
2017-01-22T10:12:30.759Z,88
2017-01-22T10:13:39.902Z,88
2017-01-22T10:14:48.993Z,88
2017-01-22T10:15:58.096Z,88
2017-01-22T10:17:07.194Z,84
2017-01-22T10:18:16.292Z,84
2017-01-22T10:19:25.686Z,84
2017-01-22T10:20:34.783Z,84
2017-01-22T10:21:43.888Z,88
2017-01-22T10:22:52.986Z,88
2017-01-22T10:24:02.083Z,88
2017-01-22T10:25:11.270Z,88
2017-01-22T10:26:20.374Z,84
2017-01-22T10:27:29.476Z,88
2017-01-22T10:28:38.581Z,92
2017-01-22T10:29:47.697Z,92
2017-01-22T10:30:56.860Z,92
2017-01-22T10:32:05.958Z,92
2017-01-22T10:33:15.060Z,92
2017-01-22T10:34:24.155Z,92
2017-01-22T10:35:33.257Z,88
2017-01-22T10:36:42.404Z,88
2017-01-22T10:37:51.517Z,88
2017-01-22T10:39:00.616Z,88
2017-01-22T10:40:09.721Z,88
2017-01-22T10:41:18.824Z,88
2017-01-22T10:42:27.978Z,88
2017-01-22T10:43:37.079Z,88
2017-01-22T10:44:46.182Z,84
2017-01-22T10:45:55.290Z,84
2017-01-22T10:47:04.388Z,80
2017-01-22T10:48:13.535Z,80
2017-01-22T10:49:22.630Z,80
2017-01-22T10:50:31.731Z,84
2017-01-22T10:51:40.864Z,88
2017-01-22T10:52:49.966Z,88
2017-01-22T10:53:59.118Z,84
2017-01-22T10:55:08.221Z,84
2017-01-22T10:56:17.326Z,84
2017-01-22T10:57:26.426Z,92
2017-01-22T10:58:35.530Z,88
2017-01-22T10:59:44.681Z,92
2017-01-22T11:00:53.783Z,88
2017-01-22T11:02:02.876Z,84
2017-01-22T11:03:11.974Z,80
2017-01-22T11:04:21.077Z,84
2017-01-22T11:05:30.230Z,84
2017-01-22T11:06:39.339Z,88
2017-01-22T11:07:48.438Z,84
2017-01-22T11:08:57.550Z,84
2017-01-22T11:10:06.646Z,84
2017-01-22T11:11:15.795Z,84
2017-01-22T11:12:24.891Z,84
2017-01-22T11:13:33.994Z,84
2017-01-22T11:14:43.091Z,88
2017-01-22T11:15:52.188Z,84
2017-01-22T11:17:01.375Z,88
2017-01-22T11:18:10.478Z,84
2017-01-22T11:19:19.593Z,84
2017-01-22T11:20:28.695Z,84
2017-01-22T11:21:37.800Z,84
2017-01-22T11:22:46.947Z,84
2017-01-22T11:23:56.064Z,80
2017-01-22T11:25:05.167Z,84
2017-01-22T11:26:14.287Z,84
2017-01-22T11:27:23.387Z,84
2017-01-22T11:28:32.541Z,84
2017-01-22T11:29:41.637Z,80
2017-01-22T11:30:50.737Z,80
2017-01-22T11:31:59.846Z,80
2017-01-22T11:33:08.946Z,76
2017-01-22T11:34:18.098Z,76
2017-01-22T11:35:27.194Z,76
2017-01-22T11:36:36.287Z,80
2017-01-22T11:37:45.389Z,76
2017-01-22T11:38:54.518Z,76
2017-01-22T11:40:03.674Z,76
2017-01-22T11:41:12.793Z,76
2017-01-22T11:42:21.903Z,76
2017-01-22T11:43:31.016Z,76
2017-01-22T11:44:40.117Z,72
2017-01-22T11:45:49.287Z,72
2017-01-22T11:46:58.420Z,76
2017-01-22T11:48:07.529Z,72
2017-01-22T11:49:16.631Z,68
2017-01-22T11:50:25.729Z,68
2017-01-22T11:51:34.872Z,68
2017-01-22T11:52:43.974Z,68
2017-01-22T11:53:53.074Z,68
2017-01-22T11:55:02.176Z,64
2017-01-22T11:56:11.282Z,64
2017-01-22T11:57:20.442Z,68
2017-01-22T11:58:29.542Z,64
2017-01-22T11:59:38.646Z,64
2017-01-22T12:00:47.756Z,64
2017-01-22T12:01:56.858Z,64
2017-01-22T12:03:06.003Z,60
2017-01-22T12:04:15.108Z,64
2017-01-22T12:05:24.212Z,64
2017-01-22T12:06:33.321Z,60
2017-01-22T12:07:42.422Z,60
2017-01-22T12:08:51.564Z,60
2017-01-22T12:10:00.672Z,60
2017-01-22T12:11:09.777Z,64
2017-01-22T12:12:18.876Z,60
2017-01-22T12:13:27.977Z,60
2017-01-22T12:14:37.134Z,64
2017-01-22T12:15:46.239Z,60
2017-01-22T12:16:55.346Z,64
2017-01-22T12:18:04.449Z,60
2017-01-22T12:19:13.563Z,60
2017-01-22T12:20:22.717Z,60
2017-01-22T12:21:31.830Z,60
2017-01-22T12:22:40.944Z,60
2017-01-22T12:23:50.071Z,56
2017-01-22T12:24:59.172Z,60
2017-01-22T12:26:08.327Z,56
2017-01-22T12:27:17.433Z,60
2017-01-22T12:28:26.552Z,56
2017-01-22T12:29:35.678Z,56
2017-01-22T12:30:44.786Z,56
2017-01-22T12:31:53.957Z,56
2017-01-22T12:33:03.055Z,56
2017-01-22T12:34:12.154Z,56
2017-01-22T12:35:21.272Z,56
2017-01-22T12:36:30.370Z,52
2017-01-22T12:37:39.525Z,52
2017-01-22T12:38:48.626Z,52
2017-01-22T12:39:57.730Z,52
2017-01-22T12:41:06.826Z,52
2017-01-22T12:42:15.928Z,52
2017-01-22T12:43:25.083Z,56
2017-01-22T12:44:34.179Z,52
2017-01-22T12:45:43.283Z,52
2017-01-22T12:46:52.389Z,52
2017-01-22T12:48:01.496Z,52
2017-01-22T12:49:10.649Z,52
2017-01-22T12:50:19.760Z,52
2017-01-22T12:51:28.871Z,52
2017-01-22T12:52:37.982Z,52
2017-01-22T12:53:47.101Z,52
2017-01-22T12:54:56.257Z,52
2017-01-22T12:56:05.371Z,52
2017-01-22T12:57:14.491Z,52
2017-01-22T12:58:23.614Z,52
2017-01-22T12:59:32.716Z,52
2017-01-22T13:00:41.874Z,52
2017-01-22T13:01:50.973Z,52
2017-01-22T13:03:00.074Z,52
2017-01-22T13:04:09.176Z,52
2017-01-22T13:05:18.277Z,48
2017-01-22T13:06:27.437Z,52
2017-01-22T13:07:36.546Z,52
2017-01-22T13:08:45.659Z,48
2017-01-22T13:09:54.769Z,52
2017-01-22T13:11:03.869Z,48
2017-01-22T13:12:13.050Z,52
2017-01-22T13:13:22.154Z,52
2017-01-22T13:14:31.260Z,52
2017-01-22T13:15:40.369Z,48
2017-01-22T13:16:49.468Z,52
2017-01-22T13:17:58.627Z,48
2017-01-22T13:19:07.730Z,48
2017-01-22T13:20:16.834Z,48
2017-01-22T13:21:25.937Z,48
2017-01-22T13:22:35.034Z,48
2017-01-22T13:23:44.191Z,48
2017-01-22T13:24:53.291Z,48
2017-01-22T13:26:02.396Z,48
2017-01-22T13:27:11.498Z,48
2017-01-22T13:28:20.606Z,48
2017-01-22T13:29:29.756Z,48
2017-01-22T13:30:38.864Z,44
2017-01-22T13:31:47.972Z,44
2017-01-22T13:32:57.072Z,44
2017-01-22T13:34:06.165Z,44
2017-01-22T13:35:15.315Z,44
2017-01-22T13:36:24.417Z,44
2017-01-22T13:37:33.513Z,44
2017-01-22T13:38:42.620Z,44
2017-01-22T13:39:51.718Z,40
2017-01-22T13:41:00.877Z,44
2017-01-22T13:42:09.981Z,44
2017-01-22T13:43:19.079Z,40
2017-01-22T13:44:28.191Z,44
2017-01-22T13:45:37.291Z,40
2017-01-22T13:46:46.450Z,40
2017-01-22T13:47:55.550Z,40
2017-01-22T13:49:04.697Z,40
2017-01-22T13:50:13.811Z,36
2017-01-22T13:51:22.913Z,36
2017-01-22T13:52:32.071Z,40
2017-01-22T13:53:41.172Z,40
2017-01-22T13:54:50.274Z,40
2017-01-22T13:55:59.376Z,36
2017-01-22T13:57:08.477Z,36
2017-01-22T13:58:17.630Z,36
2017-01-22T13:59:26.751Z,36
2017-01-22T14:00:35.854Z,36
2017-01-22T14:01:44.960Z,36
2017-01-22T14:02:54.072Z,36
2017-01-22T14:04:03.222Z,36
2017-01-22T14:05:12.319Z,36
2017-01-22T14:06:21.421Z,36
2017-01-22T14:07:30.521Z,36
2017-01-22T14:08:39.622Z,32
2017-01-22T14:09:48.770Z,36
2017-01-22T14:10:57.873Z,36
2017-01-22T14:12:06.974Z,36
2017-01-22T14:13:16.081Z,36
2017-01-22T14:14:25.187Z,32
2017-01-22T14:15:34.338Z,32
2017-01-22T14:16:43.444Z,36
2017-01-22T14:17:52.579Z,32
2017-01-22T14:19:01.673Z,32
2017-01-22T14:20:10.773Z,36
2017-01-22T14:21:19.923Z,36
2017-01-22T14:22:29.019Z,36
2017-01-22T14:23:38.129Z,36
2017-01-22T14:24:47.233Z,36
2017-01-22T14:25:56.336Z,36
2017-01-22T14:27:05.489Z,36
2017-01-22T14:28:14.592Z,36
2017-01-22T14:29:23.694Z,32
2017-01-22T14:30:32.791Z,36
2017-01-22T14:31:41.900Z,36
2017-01-22T14:32:51.054Z,36
2017-01-22T14:34:00.160Z,36
2017-01-22T14:35:09.263Z,40
2017-01-22T14:36:18.362Z,40
2017-01-22T14:37:27.461Z,36
2017-01-22T14:38:36.612Z,36
2017-01-22T14:39:45.718Z,36
2017-01-22T14:40:54.819Z,32
2017-01-22T14:42:03.927Z,32
2017-01-22T14:43:13.033Z,32
2017-01-22T14:44:22.199Z,32
2017-01-22T14:45:31.308Z,32
2017-01-22T14:46:40.404Z,28
2017-01-22T14:47:49.507Z,28
2017-01-22T14:48:58.617Z,24
2017-01-22T14:50:07.766Z,24
2017-01-22T14:51:16.871Z,20
2017-01-22T14:52:25.967Z,20
2017-01-22T14:53:35.067Z,16
2017-01-22T14:54:44.169Z,16
2017-01-22T14:55:53.319Z,16
2017-01-22T14:57:02.425Z,16
2017-01-22T14:58:11.531Z,16
2017-01-22T14:59:20.667Z,16
2017-01-22T15:00:29.776Z,16
2017-01-22T15:01:38.931Z,16
2017-01-22T15:02:48.027Z,16
2017-01-22T15:03:57.128Z,12
2017-01-22T15:05:06.230Z,16
2017-01-22T15:06:15.329Z,12
2017-01-22T15:07:24.484Z,16
2017-01-22T15:08:33.590Z,16
2017-01-22T15:09:42.693Z,12
2017-01-22T15:10:51.786Z,12
2017-01-22T15:12:00.890Z,12
2017-01-22T15:13:10.044Z,12
2017-01-22T15:14:19.144Z,12
2017-01-22T15:15:28.269Z,8
2017-01-22T15:16:37.387Z,8
2017-01-22T15:17:46.490Z,12
2017-01-22T15:18:55.634Z,12
2017-01-22T15:20:04.730Z,8
2017-01-22T15:21:13.832Z,12
2017-01-22T15:22:22.933Z,12
2017-01-22T15:23:32.042Z,8
2017-01-22T15:24:41.201Z,8
2017-01-22T15:25:50.310Z,8
2017-01-22T15:26:59.416Z,12
2017-01-22T15:28:08.522Z,8
2017-01-22T15:29:17.623Z,8
2017-01-22T15:30:26.772Z,8
2017-01-22T15:31:35.871Z,8
2017-01-22T15:32:44.978Z,8
2017-01-22T15:33:54.079Z,8
2017-01-22T15:35:03.184Z,8
2017-01-22T15:36:12.337Z,4
2017-01-22T15:37:21.439Z,4
2017-01-22T15:38:30.533Z,8
2017-01-22T15:39:39.636Z,8
2017-01-22T15:40:48.743Z,8
2017-01-22T15:41:57.903Z,4
2017-01-22T15:43:07.006Z,8
2017-01-22T15:44:16.107Z,4
2017-01-22T15:45:25.210Z,4
2017-01-22T15:46:34.311Z,4
2017-01-22T15:47:43.467Z,4
2017-01-22T15:48:52.566Z,4
2017-01-22T15:50:01.676Z,4
2017-01-22T15:51:10.774Z,4
2017-01-22T15:52:19.878Z,4
2017-01-22T15:53:29.027Z,4
2017-01-22T15:54:38.127Z,4
2017-01-22T15:55:47.238Z,4
2017-01-22T15:56:56.343Z,0
2017-01-22T15:58:05.448Z,0
2017-01-22T15:59:14.600Z,0
2017-01-22T16:00:23.712Z,0
2017-01-22T16:01:32.818Z,4
2017-01-22T16:02:41.927Z,4
2017-01-22T16:03:51.032Z,4
2017-01-22T16:05:00.186Z,4
2017-01-22T16:06:09.285Z,0
2017-01-22T16:07:18.389Z,0
2017-01-22T16:08:27.495Z,0
2017-01-22T16:09:36.597Z,0
2017-01-22T16:10:45.785Z,0
2017-01-22T16:11:54.888Z,0
2017-01-22T16:13:03.989Z,0
2017-01-22T16:14:13.102Z,0
2017-01-22T16:15:22.206Z,0
2017-01-22T16:16:31.365Z,0
2017-01-22T16:17:40.469Z,0
2017-01-22T16:18:49.576Z,0
2017-01-22T16:19:58.678Z,0
2017-01-22T16:21:07.797Z,0
2017-01-22T16:22:16.957Z,0
2017-01-22T16:23:26.066Z,0
2017-01-22T16:24:35.175Z,0
2017-01-22T16:25:44.277Z,0
2017-01-22T16:26:53.388Z,0
2017-01-22T16:28:02.557Z,0
2017-01-22T16:29:11.667Z,0
2017-01-22T16:30:20.775Z,0
2017-01-22T16:31:29.882Z,0
2017-01-22T16:32:38.983Z,0
2017-01-22T16:33:48.130Z,0
2017-01-22T16:34:57.229Z,0
2017-01-22T16:36:06.345Z,0
2017-01-22T16:37:15.452Z,0
2017-01-22T16:38:24.554Z,0
2017-01-22T16:39:33.706Z,0
2017-01-22T16:40:42.807Z,0
2017-01-22T16:41:51.913Z,0
2017-01-22T16:43:01.022Z,0
2017-01-22T16:44:10.140Z,0
2017-01-22T16:45:19.296Z,0
2017-01-22T16:46:28.400Z,0